sensor_id;sensor_type;location;lat;lon;timestamp;P1;durP1;ratioP1;P2;durP2;ratioP2
70825;SDS011;58446;41.490;22.098;2023-08-12T00:00:31;6.80;;;3.07;;
70825;SDS011;58446;41.490;22.098;2023-08-12T00:02:57;7.03;;;3.60;;
70825;SDS011;58446;41.490;22.098;2023-08-12T00:05:23;6.20;;;3.30;;
70825;SDS011;58446;41.490;22.098;2023-08-12T00:07:49;6.25;;;3.17;;
70825;SDS011;58446;41.490;22.098;2023-08-12T00:10:14;6.70;;;3.50;;
70825;SDS011;58446;41.490;22.098;2023-08-12T00:12:40;5.90;;;3.08;;
70825;SDS011;58446;41.490;22.098;2023-08-12T00:15:06;5.68;;;3.13;;
70825;SDS011;58446;41.490;22.098;2023-08-12T00:17:33;5.93;;;3.03;;
70825;SDS011;58446;41.490;22.098;2023-08-12T00:20:01;5.82;;;2.80;;
70825;SDS011;58446;41.490;22.098;2023-08-12T00:22:30;6.40;;;3.28;;
70825;SDS011;58446;41.490;22.098;2023-08-12T00:24:56;6.25;;;3.00;;
70825;SDS011;58446;41.490;22.098;2023-08-12T00:27:22;9.07;;;3.10;;
70825;SDS011;58446;41.490;22.098;2023-08-12T00:29:48;6.60;;;3.10;;
70825;SDS011;58446;41.490;22.098;2023-08-12T00:32:13;6.27;;;3.07;;
70825;SDS011;58446;41.490;22.098;2023-08-12T00:34:39;6.93;;;2.93;;
70825;SDS011;58446;41.490;22.098;2023-08-12T00:37:05;8.13;;;3.43;;
70825;SDS011;58446;41.490;22.098;2023-08-12T00:39:30;7.20;;;2.92;;
70825;SDS011;58446;41.490;22.098;2023-08-12T00:41:56;7.43;;;2.97;;
70825;SDS011;58446;41.490;22.098;2023-08-12T00:44:22;7.25;;;3.50;;
70825;SDS011;58446;41.490;22.098;2023-08-12T00:46:47;7.10;;;3.20;;
70825;SDS011;58446;41.490;22.098;2023-08-12T00:49:14;7.80;;;3.20;;
70825;SDS011;58446;41.490;22.098;2023-08-12T00:51:41;7.00;;;3.05;;
70825;SDS011;58446;41.490;22.098;2023-08-12T00:54:09;6.10;;;3.22;;
70825;SDS011;58446;41.490;22.098;2023-08-12T00:56:39;7.55;;;3.20;;
70825;SDS011;58446;41.490;22.098;2023-08-12T00:59:07;6.63;;;3.00;;
70825;SDS011;58446;41.490;22.098;2023-08-12T01:01:40;6.25;;;2.95;;
70825;SDS011;58446;41.490;22.098;2023-08-12T01:04:07;6.32;;;2.88;;
70825;SDS011;58446;41.490;22.098;2023-08-12T01:06:34;6.63;;;2.88;;
70825;SDS011;58446;41.490;22.098;2023-08-12T01:09:00;5.68;;;2.90;;
70825;SDS011;58446;41.490;22.098;2023-08-12T01:11:32;5.97;;;2.80;;
70825;SDS011;58446;41.490;22.098;2023-08-12T01:16:40;6.15;;;3.10;;
70825;SDS011;58446;41.490;22.098;2023-08-12T01:19:11;6.75;;;3.33;;
70825;SDS011;58446;41.490;22.098;2023-08-12T01:21:59;5.78;;;2.90;;
70825;SDS011;58446;41.490;22.098;2023-08-12T01:24:38;6.03;;;2.90;;
70825;SDS011;58446;41.490;22.098;2023-08-12T01:27:06;6.47;;;3.03;;
70825;SDS011;58446;41.490;22.098;2023-08-12T01:29:33;6.90;;;3.08;;
70825;SDS011;58446;41.490;22.098;2023-08-12T01:37:39;6.53;;;2.70;;
70825;SDS011;58446;41.490;22.098;2023-08-12T01:40:08;6.65;;;3.10;;
70825;SDS011;58446;41.490;22.098;2023-08-12T01:42:36;6.07;;;3.00;;
70825;SDS011;58446;41.490;22.098;2023-08-12T01:45:04;9.07;;;2.75;;
70825;SDS011;58446;41.490;22.098;2023-08-12T01:47:30;6.75;;;2.90;;
70825;SDS011;58446;41.490;22.098;2023-08-12T01:49:57;6.30;;;2.87;;
70825;SDS011;58446;41.490;22.098;2023-08-12T01:52:23;6.53;;;3.15;;
70825;SDS011;58446;41.490;22.098;2023-08-12T01:54:49;6.35;;;2.90;;
70825;SDS011;58446;41.490;22.098;2023-08-12T01:57:15;8.23;;;3.10;;
70825;SDS011;58446;41.490;22.098;2023-08-12T01:59:41;5.78;;;3.10;;
70825;SDS011;58446;41.490;22.098;2023-08-12T02:02:08;7.75;;;3.30;;
70825;SDS011;58446;41.490;22.098;2023-08-12T02:04:34;7.33;;;3.10;;
70825;SDS011;58446;41.490;22.098;2023-08-12T02:07:01;5.75;;;3.00;;
70825;SDS011;58446;41.490;22.098;2023-08-12T02:09:27;6.93;;;2.60;;
70825;SDS011;58446;41.490;22.098;2023-08-12T02:11:53;6.60;;;2.60;;
70825;SDS011;58446;41.490;22.098;2023-08-12T02:14:18;6.23;;;2.50;;
70825;SDS011;58446;41.490;22.098;2023-08-12T02:16:44;6.22;;;3.28;;
70825;SDS011;58446;41.490;22.098;2023-08-12T02:19:10;7.40;;;3.23;;
70825;SDS011;58446;41.490;22.098;2023-08-12T02:21:35;5.75;;;2.72;;
70825;SDS011;58446;41.490;22.098;2023-08-12T02:24:01;6.60;;;2.97;;
70825;SDS011;58446;41.490;22.098;2023-08-12T02:26:27;8.27;;;2.90;;
70825;SDS011;58446;41.490;22.098;2023-08-12T02:28:52;6.30;;;3.33;;
70825;SDS011;58446;41.490;22.098;2023-08-12T02:31:18;6.95;;;3.03;;
70825;SDS011;58446;41.490;22.098;2023-08-12T02:33:44;6.03;;;2.80;;
70825;SDS011;58446;41.490;22.098;2023-08-12T02:36:09;6.00;;;3.00;;
70825;SDS011;58446;41.490;22.098;2023-08-12T02:38:35;6.07;;;2.70;;
70825;SDS011;58446;41.490;22.098;2023-08-12T02:41:01;7.13;;;2.92;;
70825;SDS011;58446;41.490;22.098;2023-08-12T02:43:26;5.40;;;2.47;;
70825;SDS011;58446;41.490;22.098;2023-08-12T02:45:52;6.20;;;2.60;;
70825;SDS011;58446;41.490;22.098;2023-08-12T02:48:18;6.87;;;3.47;;
70825;SDS011;58446;41.490;22.098;2023-08-12T02:50:43;6.00;;;2.88;;
70825;SDS011;58446;41.490;22.098;2023-08-12T02:53:09;6.10;;;3.43;;
70825;SDS011;58446;41.490;22.098;2023-08-12T02:55:35;8.00;;;3.20;;
70825;SDS011;58446;41.490;22.098;2023-08-12T02:58:02;6.53;;;3.15;;
70825;SDS011;58446;41.490;22.098;2023-08-12T03:00:29;7.55;;;3.97;;
70825;SDS011;58446;41.490;22.098;2023-08-12T03:02:54;6.97;;;3.40;;
70825;SDS011;58446;41.490;22.098;2023-08-12T03:05:20;7.15;;;3.65;;
70825;SDS011;58446;41.490;22.098;2023-08-12T03:07:46;8.25;;;3.45;;
70825;SDS011;58446;41.490;22.098;2023-08-12T03:10:12;8.37;;;4.00;;
70825;SDS011;58446;41.490;22.098;2023-08-12T03:12:38;8.07;;;3.03;;
70825;SDS011;58446;41.490;22.098;2023-08-12T03:15:05;9.30;;;4.23;;
70825;SDS011;58446;41.490;22.098;2023-08-12T03:17:32;7.80;;;3.67;;
70825;SDS011;58446;41.490;22.098;2023-08-12T03:19:57;8.68;;;4.25;;
70825;SDS011;58446;41.490;22.098;2023-08-12T03:22:29;8.13;;;3.67;;
70825;SDS011;58446;41.490;22.098;2023-08-12T03:24:55;9.23;;;4.10;;
70825;SDS011;58446;41.490;22.098;2023-08-12T03:27:20;7.32;;;4.00;;
70825;SDS011;58446;41.490;22.098;2023-08-12T03:29:46;9.07;;;4.63;;
70825;SDS011;58446;41.490;22.098;2023-08-12T03:32:12;8.77;;;3.72;;
70825;SDS011;58446;41.490;22.098;2023-08-12T03:34:38;9.80;;;4.28;;
70825;SDS011;58446;41.490;22.098;2023-08-12T03:37:04;10.30;;;4.40;;
70825;SDS011;58446;41.490;22.098;2023-08-12T03:39:30;5.93;;;3.20;;
70825;SDS011;58446;41.490;22.098;2023-08-12T03:41:56;9.15;;;4.50;;
70825;SDS011;58446;41.490;22.098;2023-08-12T03:44:21;8.03;;;3.87;;
70825;SDS011;58446;41.490;22.098;2023-08-12T03:46:47;7.53;;;4.20;;
70825;SDS011;58446;41.490;22.098;2023-08-12T03:49:13;7.33;;;4.37;;
70825;SDS011;58446;41.490;22.098;2023-08-12T03:51:38;10.10;;;4.20;;
70825;SDS011;58446;41.490;22.098;2023-08-12T03:54:04;8.30;;;3.83;;
70825;SDS011;58446;41.490;22.098;2023-08-12T03:56:30;10.50;;;4.07;;
70825;SDS011;58446;41.490;22.098;2023-08-12T03:58:56;8.63;;;4.10;;
70825;SDS011;58446;41.490;22.098;2023-08-12T04:01:21;7.93;;;4.40;;
70825;SDS011;58446;41.490;22.098;2023-08-12T04:03:47;8.27;;;4.45;;
70825;SDS011;58446;41.490;22.098;2023-08-12T04:06:13;10.23;;;4.13;;
70825;SDS011;58446;41.490;22.098;2023-08-12T04:08:39;9.48;;;4.50;;
70825;SDS011;58446;41.490;22.098;2023-08-12T04:11:04;8.37;;;4.40;;
70825;SDS011;58446;41.490;22.098;2023-08-12T04:13:30;6.93;;;4.13;;
70825;SDS011;58446;41.490;22.098;2023-08-12T04:15:57;10.52;;;4.03;;
70825;SDS011;58446;41.490;22.098;2023-08-12T04:18:23;7.77;;;3.83;;
70825;SDS011;58446;41.490;22.098;2023-08-12T04:20:49;7.80;;;4.53;;
70825;SDS011;58446;41.490;22.098;2023-08-12T04:23:16;6.87;;;4.00;;
70825;SDS011;58446;41.490;22.098;2023-08-12T04:25:46;9.70;;;4.45;;
70825;SDS011;58446;41.490;22.098;2023-08-12T04:28:12;10.05;;;4.10;;
70825;SDS011;58446;41.490;22.098;2023-08-12T04:30:42;8.52;;;4.43;;
70825;SDS011;58446;41.490;22.098;2023-08-12T04:33:08;10.13;;;4.10;;
70825;SDS011;58446;41.490;22.098;2023-08-12T04:35:34;7.50;;;4.00;;
70825;SDS011;58446;41.490;22.098;2023-08-12T04:37:59;9.57;;;4.40;;
70825;SDS011;58446;41.490;22.098;2023-08-12T04:40:25;12.37;;;4.47;;
70825;SDS011;58446;41.490;22.098;2023-08-12T04:42:51;9.52;;;4.85;;
70825;SDS011;58446;41.490;22.098;2023-08-12T04:45:16;8.70;;;4.60;;
70825;SDS011;58446;41.490;22.098;2023-08-12T04:47:42;8.02;;;4.38;;
70825;SDS011;58446;41.490;22.098;2023-08-12T04:50:08;6.90;;;3.87;;
70825;SDS011;58446;41.490;22.098;2023-08-12T04:52:34;8.75;;;4.00;;
70825;SDS011;58446;41.490;22.098;2023-08-12T04:54:59;8.27;;;4.37;;
70825;SDS011;58446;41.490;22.098;2023-08-12T04:57:25;8.52;;;4.30;;
70825;SDS011;58446;41.490;22.098;2023-08-12T04:59:51;9.63;;;4.07;;
70825;SDS011;58446;41.490;22.098;2023-08-12T05:02:16;8.00;;;4.00;;
70825;SDS011;58446;41.490;22.098;2023-08-12T05:04:47;7.25;;;3.63;;
70825;SDS011;58446;41.490;22.098;2023-08-12T05:07:14;7.10;;;3.90;;
70825;SDS011;58446;41.490;22.098;2023-08-12T05:09:40;6.78;;;3.78;;
70825;SDS011;58446;41.490;22.098;2023-08-12T05:12:07;6.43;;;3.70;;
70825;SDS011;58446;41.490;22.098;2023-08-12T05:14:32;7.22;;;3.90;;
70825;SDS011;58446;41.490;22.098;2023-08-12T05:16:58;6.83;;;3.53;;
70825;SDS011;58446;41.490;22.098;2023-08-12T05:19:24;7.00;;;3.77;;
70825;SDS011;58446;41.490;22.098;2023-08-12T05:21:49;5.67;;;3.27;;
70825;SDS011;58446;41.490;22.098;2023-08-12T05:24:15;9.23;;;3.50;;
70825;SDS011;58446;41.490;22.098;2023-08-12T05:26:45;6.18;;;3.35;;
70825;SDS011;58446;41.490;22.098;2023-08-12T05:29:10;9.02;;;3.15;;
70825;SDS011;58446;41.490;22.098;2023-08-12T05:31:36;8.80;;;3.67;;
70825;SDS011;58446;41.490;22.098;2023-08-12T05:34:02;11.30;;;3.38;;
70825;SDS011;58446;41.490;22.098;2023-08-12T05:36:28;8.33;;;3.37;;
70825;SDS011;58446;41.490;22.098;2023-08-12T05:38:54;8.73;;;3.67;;
70825;SDS011;58446;41.490;22.098;2023-08-12T05:41:19;6.50;;;3.30;;
70825;SDS011;58446;41.490;22.098;2023-08-12T05:43:45;6.17;;;3.47;;
70825;SDS011;58446;41.490;22.098;2023-08-12T05:46:12;6.65;;;3.60;;
70825;SDS011;58446;41.490;22.098;2023-08-12T05:48:38;6.70;;;3.43;;
70825;SDS011;58446;41.490;22.098;2023-08-12T05:51:03;6.80;;;3.63;;
70825;SDS011;58446;41.490;22.098;2023-08-12T05:53:29;6.60;;;3.30;;
70825;SDS011;58446;41.490;22.098;2023-08-12T05:55:55;10.43;;;3.10;;
70825;SDS011;58446;41.490;22.098;2023-08-12T05:58:20;7.60;;;3.50;;
70825;SDS011;58446;41.490;22.098;2023-08-12T06:00:48;8.00;;;3.70;;
70825;SDS011;58446;41.490;22.098;2023-08-12T06:03:18;8.32;;;3.97;;
70825;SDS011;58446;41.490;22.098;2023-08-12T06:05:45;6.80;;;3.27;;
70825;SDS011;58446;41.490;22.098;2023-08-12T06:08:11;7.05;;;3.17;;
70825;SDS011;58446;41.490;22.098;2023-08-12T06:10:37;8.38;;;3.85;;
70825;SDS011;58446;41.490;22.098;2023-08-12T06:13:03;7.38;;;3.38;;
70825;SDS011;58446;41.490;22.098;2023-08-12T06:15:29;6.73;;;3.30;;
70825;SDS011;58446;41.490;22.098;2023-08-12T06:17:56;7.68;;;3.60;;
70825;SDS011;58446;41.490;22.098;2023-08-12T06:20:25;6.32;;;3.05;;
70825;SDS011;58446;41.490;22.098;2023-08-12T06:22:51;5.95;;;3.20;;
70825;SDS011;58446;41.490;22.098;2023-08-12T06:25:18;7.10;;;4.13;;
70825;SDS011;58446;41.490;22.098;2023-08-12T06:27:44;8.35;;;3.90;;
70825;SDS011;58446;41.490;22.098;2023-08-12T06:30:11;6.35;;;3.00;;
70825;SDS011;58446;41.490;22.098;2023-08-12T06:32:37;7.18;;;3.30;;
70825;SDS011;58446;41.490;22.098;2023-08-12T06:35:03;9.18;;;4.25;;
70825;SDS011;58446;41.490;22.098;2023-08-12T06:37:30;8.47;;;3.83;;
70825;SDS011;58446;41.490;22.098;2023-08-12T06:39:55;6.35;;;3.50;;
70825;SDS011;58446;41.490;22.098;2023-08-12T06:42:21;8.57;;;3.10;;
70825;SDS011;58446;41.490;22.098;2023-08-12T06:44:53;6.10;;;3.15;;
70825;SDS011;58446;41.490;22.098;2023-08-12T06:47:20;5.82;;;3.08;;
70825;SDS011;58446;41.490;22.098;2023-08-12T06:49:45;6.40;;;2.90;;
70825;SDS011;58446;41.490;22.098;2023-08-12T06:52:11;6.85;;;3.55;;
70825;SDS011;58446;41.490;22.098;2023-08-12T06:54:37;6.37;;;2.80;;
70825;SDS011;58446;41.490;22.098;2023-08-12T06:57:03;6.23;;;3.10;;
70825;SDS011;58446;41.490;22.098;2023-08-12T06:59:29;5.78;;;2.80;;
70825;SDS011;58446;41.490;22.098;2023-08-12T07:01:54;6.00;;;2.90;;
70825;SDS011;58446;41.490;22.098;2023-08-12T07:04:20;5.47;;;2.67;;
70825;SDS011;58446;41.490;22.098;2023-08-12T07:06:46;6.43;;;2.60;;
70825;SDS011;58446;41.490;22.098;2023-08-12T07:09:12;6.85;;;2.63;;
70825;SDS011;58446;41.490;22.098;2023-08-12T07:11:38;6.00;;;2.80;;
70825;SDS011;58446;41.490;22.098;2023-08-12T07:14:04;6.43;;;2.43;;
70825;SDS011;58446;41.490;22.098;2023-08-12T07:16:29;5.65;;;3.00;;
70825;SDS011;58446;41.490;22.098;2023-08-12T07:18:55;6.32;;;2.78;;
70825;SDS011;58446;41.490;22.098;2023-08-12T07:21:21;6.63;;;2.63;;
70825;SDS011;58446;41.490;22.098;2023-08-12T07:23:47;6.00;;;2.80;;
70825;SDS011;58446;41.490;22.098;2023-08-12T07:26:12;6.50;;;2.77;;
70825;SDS011;58446;41.490;22.098;2023-08-12T07:28:38;8.60;;;2.83;;
70825;SDS011;58446;41.490;22.098;2023-08-12T07:31:04;6.87;;;2.87;;
70825;SDS011;58446;41.490;22.098;2023-08-12T07:33:29;6.00;;;2.70;;
70825;SDS011;58446;41.490;22.098;2023-08-12T07:35:55;6.30;;;2.70;;
70825;SDS011;58446;41.490;22.098;2023-08-12T07:38:21;7.47;;;3.00;;
70825;SDS011;58446;41.490;22.098;2023-08-12T07:40:48;6.67;;;2.87;;
70825;SDS011;58446;41.490;22.098;2023-08-12T07:43:14;6.18;;;2.83;;
70825;SDS011;58446;41.490;22.098;2023-08-12T07:45:39;5.40;;;2.60;;
70825;SDS011;58446;41.490;22.098;2023-08-12T07:48:05;5.40;;;2.88;;
70825;SDS011;58446;41.490;22.098;2023-08-12T07:50:31;7.97;;;2.78;;
70825;SDS011;58446;41.490;22.098;2023-08-12T07:52:57;6.73;;;3.20;;
70825;SDS011;58446;41.490;22.098;2023-08-12T07:55:23;8.88;;;3.13;;
70825;SDS011;58446;41.490;22.098;2023-08-12T07:57:48;7.60;;;2.97;;
70825;SDS011;58446;41.490;22.098;2023-08-12T08:00:14;5.68;;;2.72;;
70825;SDS011;58446;41.490;22.098;2023-08-12T08:02:40;6.53;;;3.20;;
70825;SDS011;58446;41.490;22.098;2023-08-12T08:05:06;15.10;;;7.97;;
70825;SDS011;58446;41.490;22.098;2023-08-12T08:07:32;7.65;;;3.78;;
70825;SDS011;58446;41.490;22.098;2023-08-12T08:09:58;6.37;;;2.77;;
70825;SDS011;58446;41.490;22.098;2023-08-12T08:12:23;7.55;;;3.30;;
70825;SDS011;58446;41.490;22.098;2023-08-12T08:14:49;6.67;;;3.00;;
70825;SDS011;58446;41.490;22.098;2023-08-12T08:17:15;6.88;;;3.10;;
70825;SDS011;58446;41.490;22.098;2023-08-12T08:19:41;6.33;;;2.80;;
70825;SDS011;58446;41.490;22.098;2023-08-12T08:22:06;6.80;;;3.05;;
70825;SDS011;58446;41.490;22.098;2023-08-12T08:24:32;5.80;;;3.00;;
70825;SDS011;58446;41.490;22.098;2023-08-12T08:26:58;6.05;;;3.22;;
70825;SDS011;58446;41.490;22.098;2023-08-12T08:29:23;7.93;;;3.65;;
70825;SDS011;58446;41.490;22.098;2023-08-12T08:31:49;8.40;;;3.47;;
70825;SDS011;58446;41.490;22.098;2023-08-12T08:34:15;7.22;;;3.10;;
70825;SDS011;58446;41.490;22.098;2023-08-12T08:36:41;5.93;;;2.70;;
70825;SDS011;58446;41.490;22.098;2023-08-12T08:39:07;6.37;;;3.00;;
70825;SDS011;58446;41.490;22.098;2023-08-12T08:41:32;5.68;;;3.00;;
70825;SDS011;58446;41.490;22.098;2023-08-12T08:44:06;7.13;;;3.03;;
70825;SDS011;58446;41.490;22.098;2023-08-12T08:46:34;7.10;;;3.10;;
70825;SDS011;58446;41.490;22.098;2023-08-12T08:49:00;6.57;;;2.85;;
70825;SDS011;58446;41.490;22.098;2023-08-12T08:51:26;6.72;;;2.92;;
70825;SDS011;58446;41.490;22.098;2023-08-12T08:53:54;7.00;;;3.33;;
70825;SDS011;58446;41.490;22.098;2023-08-12T08:56:20;7.30;;;2.75;;
70825;SDS011;58446;41.490;22.098;2023-08-12T08:58:47;6.28;;;3.10;;
70825;SDS011;58446;41.490;22.098;2023-08-12T09:01:13;6.68;;;3.00;;
70825;SDS011;58446;41.490;22.098;2023-08-12T09:03:40;6.28;;;2.83;;
70825;SDS011;58446;41.490;22.098;2023-08-12T09:06:08;6.87;;;2.90;;
70825;SDS011;58446;41.490;22.098;2023-08-12T09:08:34;6.00;;;2.75;;
70825;SDS011;58446;41.490;22.098;2023-08-12T09:11:02;6.13;;;2.83;;
70825;SDS011;58446;41.490;22.098;2023-08-12T09:13:28;6.22;;;2.70;;
70825;SDS011;58446;41.490;22.098;2023-08-12T09:15:55;7.47;;;3.13;;
70825;SDS011;58446;41.490;22.098;2023-08-12T09:18:21;5.65;;;2.78;;
70825;SDS011;58446;41.490;22.098;2023-08-12T09:20:52;6.47;;;2.90;;
70825;SDS011;58446;41.490;22.098;2023-08-12T09:23:19;9.98;;;3.28;;
70825;SDS011;58446;41.490;22.098;2023-08-12T09:25:45;6.87;;;3.43;;
70825;SDS011;58446;41.490;22.098;2023-08-12T09:28:11;6.32;;;3.10;;
70825;SDS011;58446;41.490;22.098;2023-08-12T09:30:37;6.30;;;3.20;;
70825;SDS011;58446;41.490;22.098;2023-08-12T09:33:04;6.82;;;3.45;;
70825;SDS011;58446;41.490;22.098;2023-08-12T09:35:32;5.72;;;2.97;;
70825;SDS011;58446;41.490;22.098;2023-08-12T09:38:03;6.87;;;2.83;;
70825;SDS011;58446;41.490;22.098;2023-08-12T09:40:31;6.50;;;3.00;;
70825;SDS011;58446;41.490;22.098;2023-08-12T09:42:58;8.18;;;3.03;;
70825;SDS011;58446;41.490;22.098;2023-08-12T09:45:24;7.18;;;3.15;;
70825;SDS011;58446;41.490;22.098;2023-08-12T09:47:50;11.63;;;5.28;;
70825;SDS011;58446;41.490;22.098;2023-08-12T09:50:17;7.57;;;3.20;;
70825;SDS011;58446;41.490;22.098;2023-08-12T09:52:43;5.97;;;3.05;;
70825;SDS011;58446;41.490;22.098;2023-08-12T09:55:08;5.87;;;2.87;;
70825;SDS011;58446;41.490;22.098;2023-08-12T09:57:36;5.90;;;3.23;;
70825;SDS011;58446;41.490;22.098;2023-08-12T10:00:07;5.55;;;2.95;;
70825;SDS011;58446;41.490;22.098;2023-08-12T10:02:39;7.15;;;3.20;;
70825;SDS011;58446;41.490;22.098;2023-08-12T10:05:06;6.90;;;2.63;;
70825;SDS011;58446;41.490;22.098;2023-08-12T10:07:34;5.70;;;3.25;;
70825;SDS011;58446;41.490;22.098;2023-08-12T10:10:01;6.30;;;2.93;;
70825;SDS011;58446;41.490;22.098;2023-08-12T10:12:28;6.63;;;3.35;;
70825;SDS011;58446;41.490;22.098;2023-08-12T10:14:54;6.10;;;3.10;;
70825;SDS011;58446;41.490;22.098;2023-08-12T10:17:21;7.38;;;3.13;;
70825;SDS011;58446;41.490;22.098;2023-08-12T10:19:48;6.63;;;3.17;;
70825;SDS011;58446;41.490;22.098;2023-08-12T10:22:20;6.53;;;2.73;;
70825;SDS011;58446;41.490;22.098;2023-08-12T10:24:46;6.43;;;2.85;;
70825;SDS011;58446;41.490;22.098;2023-08-12T10:27:15;5.38;;;2.67;;
70825;SDS011;58446;41.490;22.098;2023-08-12T10:29:43;7.93;;;2.72;;
70825;SDS011;58446;41.490;22.098;2023-08-12T10:32:09;7.10;;;3.08;;
70825;SDS011;58446;41.490;22.098;2023-08-12T10:34:35;5.83;;;2.63;;
70825;SDS011;58446;41.490;22.098;2023-08-12T10:37:02;6.35;;;2.63;;
70825;SDS011;58446;41.490;22.098;2023-08-12T10:39:28;6.85;;;3.00;;
70825;SDS011;58446;41.490;22.098;2023-08-12T10:41:58;7.07;;;2.97;;
70825;SDS011;58446;41.490;22.098;2023-08-12T10:44:26;6.75;;;3.10;;
70825;SDS011;58446;41.490;22.098;2023-08-12T10:47:19;6.40;;;2.45;;
70825;SDS011;58446;41.490;22.098;2023-08-12T10:49:49;6.95;;;2.95;;
70825;SDS011;58446;41.490;22.098;2023-08-12T10:55:37;5.57;;;2.50;;
70825;SDS011;58446;41.490;22.098;2023-08-12T10:57:51;6.57;;;2.88;;
70825;SDS011;58446;41.490;22.098;2023-08-12T11:00:25;6.47;;;2.70;;
70825;SDS011;58446;41.490;22.098;2023-08-12T11:02:53;7.50;;;2.97;;
70825;SDS011;58446;41.490;22.098;2023-08-12T11:05:21;6.53;;;2.70;;
70825;SDS011;58446;41.490;22.098;2023-08-12T11:07:57;6.63;;;2.90;;
70825;SDS011;58446;41.490;22.098;2023-08-12T11:10:26;5.68;;;2.65;;
70825;SDS011;58446;41.490;22.098;2023-08-12T11:15:35;6.53;;;3.17;;
70825;SDS011;58446;41.490;22.098;2023-08-12T11:18:14;5.13;;;2.50;;
70825;SDS011;58446;41.490;22.098;2023-08-12T11:20:44;5.78;;;2.88;;
70825;SDS011;58446;41.490;22.098;2023-08-12T11:23:10;6.07;;;3.03;;
70825;SDS011;58446;41.490;22.098;2023-08-12T11:25:37;6.85;;;2.78;;
70825;SDS011;58446;41.490;22.098;2023-08-12T11:28:04;6.13;;;2.70;;
70825;SDS011;58446;41.490;22.098;2023-08-12T11:30:30;6.90;;;2.80;;
70825;SDS011;58446;41.490;22.098;2023-08-12T11:32:59;6.03;;;2.97;;
70825;SDS011;58446;41.490;22.098;2023-08-12T11:35:27;6.03;;;2.88;;
70825;SDS011;58446;41.490;22.098;2023-08-12T11:37:54;5.68;;;2.63;;
70825;SDS011;58446;41.490;22.098;2023-08-12T11:40:21;6.10;;;2.55;;
70825;SDS011;58446;41.490;22.098;2023-08-12T11:42:48;6.77;;;2.43;;
70825;SDS011;58446;41.490;22.098;2023-08-12T11:45:18;6.82;;;2.83;;
70825;SDS011;58446;41.490;22.098;2023-08-12T11:47:47;5.60;;;2.47;;
70825;SDS011;58446;41.490;22.098;2023-08-12T11:50:18;6.55;;;2.55;;
70825;SDS011;58446;41.490;22.098;2023-08-12T11:52:49;6.20;;;2.90;;
70825;SDS011;58446;41.490;22.098;2023-08-12T11:55:16;5.70;;;2.60;;
70825;SDS011;58446;41.490;22.098;2023-08-12T11:57:42;6.13;;;2.22;;
70825;SDS011;58446;41.490;22.098;2023-08-12T12:00:11;5.45;;;2.33;;
70825;SDS011;58446;41.490;22.098;2023-08-12T12:02:50;5.47;;;2.45;;
70825;SDS011;58446;41.490;22.098;2023-08-12T12:05:17;5.93;;;2.33;;
70825;SDS011;58446;41.490;22.098;2023-08-12T12:07:47;5.67;;;2.40;;
70825;SDS011;58446;41.490;22.098;2023-08-12T12:10:18;5.53;;;2.42;;
70825;SDS011;58446;41.490;22.098;2023-08-12T12:12:50;6.70;;;2.72;;
70825;SDS011;58446;41.490;22.098;2023-08-12T12:15:16;6.65;;;2.85;;
70825;SDS011;58446;41.490;22.098;2023-08-12T12:17:42;6.40;;;3.40;;
70825;SDS011;58446;41.490;22.098;2023-08-12T12:20:10;6.90;;;2.88;;
70825;SDS011;58446;41.490;22.098;2023-08-12T12:22:36;6.40;;;3.25;;
70825;SDS011;58446;41.490;22.098;2023-08-12T12:25:09;5.90;;;2.70;;
70825;SDS011;58446;41.490;22.098;2023-08-12T12:27:39;7.43;;;3.10;;
70825;SDS011;58446;41.490;22.098;2023-08-12T12:30:09;7.47;;;2.70;;
70825;SDS011;58446;41.490;22.098;2023-08-12T12:32:36;5.93;;;2.78;;
70825;SDS011;58446;41.490;22.098;2023-08-12T12:35:02;5.53;;;2.63;;
70825;SDS011;58446;41.490;22.098;2023-08-12T12:37:29;5.90;;;2.80;;
70825;SDS011;58446;41.490;22.098;2023-08-12T12:39:55;5.90;;;2.28;;
70825;SDS011;58446;41.490;22.098;2023-08-12T12:42:20;6.90;;;3.08;;
70825;SDS011;58446;41.490;22.098;2023-08-12T12:44:46;6.67;;;3.47;;
70825;SDS011;58446;41.490;22.098;2023-08-12T12:47:12;6.95;;;3.13;;
70825;SDS011;58446;41.490;22.098;2023-08-12T12:49:38;6.50;;;2.47;;
70825;SDS011;58446;41.490;22.098;2023-08-12T12:52:06;5.60;;;2.60;;
70825;SDS011;58446;41.490;22.098;2023-08-12T12:54:32;6.05;;;2.80;;
70825;SDS011;58446;41.490;22.098;2023-08-12T12:56:57;6.47;;;2.37;;
70825;SDS011;58446;41.490;22.098;2023-08-12T12:59:23;5.68;;;2.42;;
70825;SDS011;58446;41.490;22.098;2023-08-12T13:01:49;5.57;;;2.80;;
70825;SDS011;58446;41.490;22.098;2023-08-12T13:04:15;7.60;;;2.33;;
70825;SDS011;58446;41.490;22.098;2023-08-12T13:06:40;5.60;;;2.80;;
70825;SDS011;58446;41.490;22.098;2023-08-12T13:09:06;5.93;;;2.45;;
70825;SDS011;58446;41.490;22.098;2023-08-12T13:11:32;5.82;;;2.35;;
70825;SDS011;58446;41.490;22.098;2023-08-12T13:14:04;5.30;;;2.23;;
70825;SDS011;58446;41.490;22.098;2023-08-12T13:16:31;5.60;;;2.53;;
70825;SDS011;58446;41.490;22.098;2023-08-12T13:19:02;5.15;;;2.55;;
70825;SDS011;58446;41.490;22.098;2023-08-12T13:21:29;5.15;;;2.30;;
70825;SDS011;58446;41.490;22.098;2023-08-12T13:23:55;8.73;;;4.40;;
70825;SDS011;58446;41.490;22.098;2023-08-12T13:26:22;6.78;;;3.10;;
70825;SDS011;58446;41.490;22.098;2023-08-12T13:28:47;6.37;;;2.63;;
70825;SDS011;58446;41.490;22.098;2023-08-12T13:31:14;5.70;;;2.85;;
70825;SDS011;58446;41.490;22.098;2023-08-12T13:33:40;5.97;;;2.92;;
70825;SDS011;58446;41.490;22.098;2023-08-12T13:36:05;5.97;;;2.55;;
70825;SDS011;58446;41.490;22.098;2023-08-12T13:38:31;6.07;;;3.00;;
70825;SDS011;58446;41.490;22.098;2023-08-12T13:40:57;6.35;;;2.88;;
70825;SDS011;58446;41.490;22.098;2023-08-12T13:43:22;5.70;;;2.80;;
70825;SDS011;58446;41.490;22.098;2023-08-12T13:45:48;6.40;;;2.67;;
70825;SDS011;58446;41.490;22.098;2023-08-12T13:48:14;6.37;;;2.97;;
70825;SDS011;58446;41.490;22.098;2023-08-12T13:50:40;6.10;;;2.55;;
70825;SDS011;58446;41.490;22.098;2023-08-12T13:53:06;7.43;;;2.97;;
70825;SDS011;58446;41.490;22.098;2023-08-12T13:55:32;9.07;;;3.42;;
70825;SDS011;58446;41.490;22.098;2023-08-12T13:57:58;7.07;;;3.20;;
70825;SDS011;58446;41.490;22.098;2023-08-12T14:00:24;24.20;;;8.07;;
70825;SDS011;58446;41.490;22.098;2023-08-12T14:02:50;22.13;;;6.80;;
70825;SDS011;58446;41.490;22.098;2023-08-12T14:05:16;20.83;;;6.47;;
70825;SDS011;58446;41.490;22.098;2023-08-12T14:07:41;13.17;;;5.37;;
70825;SDS011;58446;41.490;22.098;2023-08-12T14:10:07;14.48;;;5.57;;
70825;SDS011;58446;41.490;22.098;2023-08-12T14:12:33;6.47;;;2.90;;
70825;SDS011;58446;41.490;22.098;2023-08-12T14:14:59;9.53;;;3.40;;
70825;SDS011;58446;41.490;22.098;2023-08-12T14:17:26;13.15;;;4.22;;
70825;SDS011;58446;41.490;22.098;2023-08-12T14:19:51;10.18;;;4.15;;
70825;SDS011;58446;41.490;22.098;2023-08-12T14:22:18;9.57;;;3.97;;
70825;SDS011;58446;41.490;22.098;2023-08-12T14:24:44;13.67;;;4.17;;
70825;SDS011;58446;41.490;22.098;2023-08-12T14:27:10;16.65;;;5.15;;
70825;SDS011;58446;41.490;22.098;2023-08-12T14:29:37;13.43;;;4.43;;
70825;SDS011;58446;41.490;22.098;2023-08-12T14:32:02;10.73;;;3.57;;
70825;SDS011;58446;41.490;22.098;2023-08-12T14:34:28;18.48;;;4.63;;
70825;SDS011;58446;41.490;22.098;2023-08-12T14:36:54;11.00;;;4.07;;
70825;SDS011;58446;41.490;22.098;2023-08-12T14:39:19;11.90;;;4.47;;
70825;SDS011;58446;41.490;22.098;2023-08-12T14:41:47;12.30;;;4.10;;
70825;SDS011;58446;41.490;22.098;2023-08-12T14:44:13;10.02;;;3.70;;